createdAt,value
2023-04-18T00:00:59.156Z,1360.00
2023-04-18T00:01:59.249Z,1358.00
2023-04-18T00:03:00.900Z,1359.00
2023-04-18T00:03:59.499Z,1358.00
2023-04-18T00:04:59.394Z,1355.00
2023-04-18T00:05:59.348Z,1356.00
2023-04-18T00:06:59.299Z,1357.00
2023-04-18T00:07:59.313Z,1356.00
2023-04-18T00:08:59.374Z,1354.00
2023-04-18T00:09:59.346Z,1353.00
2023-04-18T00:10:59.358Z,1351.00
2023-04-18T00:11:59.362Z,1351.00
2023-04-18T00:12:59.378Z,1353.00
2023-04-18T00:13:59.399Z,1352.00
2023-04-18T00:14:59.401Z,1353.00
2023-04-18T00:15:59.420Z,1357.00
2023-04-18T00:16:59.477Z,1357.00
2023-04-18T00:17:59.498Z,1358.00
2023-04-18T00:18:59.461Z,1358.00
2023-04-18T00:19:59.473Z,1358.00
2023-04-18T00:20:59.486Z,1358.00
2023-04-18T00:21:59.494Z,1355.00
2023-04-18T00:22:59.504Z,1350.00
2023-04-18T00:23:59.600Z,1348.00
2023-04-18T00:24:59.726Z,1348.00
2023-04-18T00:25:59.763Z,1347.00
2023-04-18T00:26:59.831Z,1348.00
2023-04-18T00:28:00.887Z,1345.00
2023-04-18T00:29:00.002Z,1343.00
2023-04-18T00:30:00.140Z,1341.00
2023-04-18T00:31:00.170Z,1339.00
2023-04-18T00:32:00.241Z,1339.00
2023-04-18T00:33:00.419Z,1337.00
2023-04-18T00:34:00.398Z,1339.00
2023-04-18T00:35:00.903Z,1339.00
2023-04-18T00:36:00.572Z,1339.00
2023-04-18T00:37:00.639Z,1338.00
2023-04-18T00:38:00.707Z,1336.00
2023-04-18T00:39:00.808Z,1337.00
2023-04-18T00:40:00.886Z,1334.00
2023-04-18T00:41:00.957Z,1336.00
2023-04-18T00:42:01.034Z,1338.00
2023-04-18T00:43:01.119Z,1337.00
2023-04-18T00:44:01.200Z,1337.00
2023-04-18T00:45:01.285Z,1336.00
2023-04-18T00:46:01.425Z,1337.00
2023-04-18T00:47:01.440Z,1337.00
2023-04-18T00:48:01.594Z,1336.00
2023-04-18T00:49:01.908Z,1335.00
2023-04-18T00:50:01.712Z,1337.00
2023-04-18T00:51:01.756Z,1341.00
2023-04-18T00:52:01.852Z,1339.00
2023-04-18T00:53:01.918Z,1337.00
2023-04-18T00:54:02.066Z,1334.00
2023-04-18T00:55:02.093Z,1332.00
2023-04-18T00:56:02.131Z,1329.00
2023-04-18T00:57:02.280Z,1330.00
2023-04-18T00:58:02.284Z,1330.00
2023-04-18T00:59:02.338Z,1327.00
2023-04-18T01:00:02.504Z,1327.00
2023-04-18T01:01:02.472Z,1326.00
2023-04-18T01:02:02.640Z,1326.00
2023-04-18T01:03:02.920Z,1327.00
2023-04-18T01:04:02.761Z,1326.00
2023-04-18T01:05:02.744Z,1325.00
2023-04-18T01:06:02.811Z,1323.00
2023-04-18T01:07:02.873Z,1320.00
2023-04-18T01:08:02.932Z,1322.00
2023-04-18T01:09:03.087Z,1321.00
2023-04-18T01:10:03.103Z,1322.00
2023-04-18T01:11:03.184Z,1324.00
2023-04-18T01:12:03.247Z,1323.00
2023-04-18T01:13:03.321Z,1324.00
2023-04-18T01:14:04.414Z,1321.00
2023-04-18T01:15:03.493Z,1319.00
2023-04-18T01:16:03.622Z,1320.00
2023-04-18T01:17:03.628Z,1320.00
2023-04-18T01:18:03.714Z,1319.00
2023-04-18T01:19:03.769Z,1320.00
2023-04-18T01:20:03.854Z,1323.00
2023-04-18T01:21:03.918Z,1318.00
2023-04-18T01:22:04.006Z,1318.00
2023-04-18T01:23:04.080Z,1319.00
2023-04-18T01:24:04.184Z,1316.00
2023-04-18T01:25:04.245Z,1312.00
2023-04-18T01:26:04.398Z,1311.00
2023-04-18T01:27:05.399Z,1313.00
2023-04-18T01:28:04.528Z,1309.00
2023-04-18T01:29:04.589Z,1311.00
2023-04-18T01:30:04.707Z,1312.00
2023-04-18T01:31:04.802Z,1311.00
2023-04-18T01:32:04.852Z,1309.00
2023-04-18T01:33:04.935Z,1307.00
2023-04-18T01:34:05.016Z,1305.00
2023-04-18T01:35:05.415Z,1300.00
2023-04-18T01:36:05.184Z,1299.00
2023-04-18T01:37:05.258Z,1296.00
2023-04-18T01:38:05.348Z,1298.00
2023-04-18T01:39:05.466Z,1295.00
2023-04-18T01:40:05.517Z,1293.00
2023-04-18T01:41:05.587Z,1290.00
2023-04-18T01:42:05.675Z,1291.00
2023-04-18T01:43:05.753Z,1293.00
2023-04-18T01:44:05.840Z,1291.00
2023-04-18T01:45:05.929Z,1292.00
2023-04-18T01:46:06.018Z,1291.00
2023-04-18T01:47:06.090Z,1291.00
2023-04-18T01:48:06.171Z,1290.00
2023-04-18T01:49:06.247Z,1291.00
2023-04-18T01:50:06.334Z,1291.00
2023-04-18T01:51:06.420Z,1291.00
2023-04-18T01:52:06.491Z,1291.00
2023-04-18T01:53:06.577Z,1291.00
2023-04-18T01:54:06.666Z,1290.00
2023-04-18T01:55:06.932Z,1291.00
2023-04-18T01:56:06.808Z,1295.00
2023-04-18T01:57:06.929Z,1293.00
2023-04-18T01:58:06.968Z,1297.00
2023-04-18T01:59:07.045Z,1296.00
2023-04-18T02:00:07.151Z,1293.00
2023-04-18T02:01:07.257Z,1293.00
2023-04-18T02:02:07.422Z,1297.00
2023-04-18T02:03:07.556Z,1298.00
2023-04-18T02:04:07.441Z,1291.00
2023-04-18T02:05:07.507Z,1289.00
2023-04-18T02:06:07.606Z,1289.00
2023-04-18T02:07:08.412Z,1290.00
2023-04-18T02:08:07.725Z,1291.00
2023-04-18T02:09:07.792Z,1290.00
2023-04-18T02:10:07.890Z,1289.00
2023-04-18T02:11:07.954Z,1289.00
2023-04-18T02:12:08.045Z,1289.00
2023-04-18T02:13:08.101Z,1287.00
2023-04-18T02:14:08.179Z,1287.00
2023-04-18T02:15:08.433Z,1285.00
2023-04-18T02:16:08.436Z,1286.00
2023-04-18T02:17:08.408Z,1285.00
2023-04-18T02:18:08.526Z,1285.00
2023-04-18T02:19:08.586Z,1285.00
2023-04-18T02:20:08.639Z,1283.00
2023-04-18T02:21:08.696Z,1281.00
2023-04-18T02:22:08.787Z,1280.00
2023-04-18T02:23:08.906Z,1281.00
2023-04-18T02:24:08.931Z,1283.00
2023-04-18T02:25:08.998Z,1286.00
2023-04-18T02:26:09.079Z,1287.00
2023-04-18T02:27:09.155Z,1285.00
2023-04-18T02:28:09.235Z,1282.00
2023-04-18T02:29:09.306Z,1279.00
2023-04-18T02:30:09.391Z,1277.00
2023-04-18T02:31:09.933Z,1282.00
2023-04-18T02:32:09.631Z,1282.00
2023-04-18T02:33:09.602Z,1282.00
2023-04-18T02:34:09.674Z,1280.00
2023-04-18T02:35:09.751Z,1281.00
2023-04-18T02:36:09.801Z,1277.00
2023-04-18T02:37:09.879Z,1277.00
2023-04-18T02:38:09.951Z,1275.00
2023-04-18T02:39:10.025Z,1273.00
2023-04-18T02:40:10.159Z,1270.00
2023-04-18T02:41:10.174Z,1268.00
2023-04-18T02:42:10.235Z,1266.00
2023-04-18T02:43:10.315Z,1267.00
2023-04-18T02:44:10.382Z,1268.00
2023-04-18T02:45:10.456Z,1264.00
2023-04-18T02:46:10.557Z,1266.00
2023-04-18T02:47:10.604Z,1264.00
2023-04-18T02:48:10.698Z,1263.00
2023-04-18T02:49:10.818Z,1266.00
2023-04-18T02:50:10.827Z,1262.00
2023-04-18T02:51:10.884Z,1260.00
2023-04-18T02:52:10.957Z,1255.00
2023-04-18T02:53:11.029Z,1252.00
2023-04-18T02:54:11.161Z,1253.00
2023-04-18T02:55:11.174Z,1256.00
2023-04-18T02:56:11.246Z,1255.00
2023-04-18T02:57:11.316Z,1251.00
2023-04-18T02:58:11.397Z,1252.00
2023-04-18T02:59:12.436Z,1251.00
2023-04-18T03:00:11.975Z,1251.00
2023-04-18T03:01:11.667Z,1254.00
2023-04-18T03:02:11.644Z,1253.00
2023-04-18T03:03:11.748Z,1251.00
2023-04-18T03:04:12.164Z,1250.00
2023-04-18T03:05:11.945Z,1247.00
2023-04-18T03:06:11.906Z,1248.00
2023-04-18T03:07:12.065Z,1251.00
2023-04-18T03:08:12.048Z,1252.00
2023-04-18T03:09:12.104Z,1252.00
2023-04-18T03:10:12.189Z,1252.00
2023-04-18T03:11:12.252Z,1251.00
2023-04-18T03:12:12.329Z,1251.00
2023-04-18T03:13:12.388Z,1252.00
2023-04-18T03:14:12.654Z,1251.00
2023-04-18T03:15:12.522Z,1250.00
2023-04-18T03:16:12.666Z,1250.00
2023-04-18T03:17:12.638Z,1251.00
2023-04-18T03:18:12.746Z,1250.00
2023-04-18T03:19:12.797Z,1247.00
2023-04-18T03:20:12.872Z,1248.00
2023-04-18T03:21:12.901Z,1249.00
2023-04-18T03:22:12.972Z,1246.00
2023-04-18T03:23:13.050Z,1245.00
2023-04-18T03:24:13.489Z,1248.00
2023-04-18T03:25:13.171Z,1249.00
2023-04-18T03:26:13.247Z,1250.00
2023-04-18T03:27:13.290Z,1249.00
2023-04-18T03:28:13.356Z,1251.00
2023-04-18T03:29:13.457Z,1253.00
2023-04-18T03:30:13.483Z,1249.00
2023-04-18T03:31:13.590Z,1249.00
2023-04-18T03:32:13.612Z,1249.00
2023-04-18T03:33:13.685Z,1248.00
2023-04-18T03:34:13.935Z,1248.00
2023-04-18T03:35:13.841Z,1245.00
2023-04-18T03:36:14.443Z,1243.00
2023-04-18T03:37:13.963Z,1242.00
2023-04-18T03:38:14.003Z,1240.00
2023-04-18T03:39:14.077Z,1239.00
2023-04-18T03:40:14.151Z,1238.00
2023-04-18T03:41:14.400Z,1238.00
2023-04-18T03:42:14.277Z,1239.00
2023-04-18T03:43:14.344Z,1241.00
2023-04-18T03:44:14.742Z,1241.00
2023-04-18T03:45:14.478Z,1241.00
2023-04-18T03:46:14.597Z,1239.00
2023-04-18T03:47:14.637Z,1242.00
2023-04-18T03:48:14.713Z,1245.00
2023-04-18T03:49:14.776Z,1243.00
2023-04-18T03:50:14.843Z,1243.00
2023-04-18T03:51:14.976Z,1242.00
2023-04-18T03:52:14.969Z,1240.00
2023-04-18T03:53:15.059Z,1243.00
2023-04-18T03:54:15.317Z,1241.00
2023-04-18T03:55:15.178Z,1241.00
2023-04-18T03:56:15.257Z,1238.00
2023-04-18T03:57:15.323Z,1236.00
2023-04-18T03:58:15.480Z,1232.00
2023-04-18T03:59:15.601Z,1229.00
2023-04-18T04:00:15.521Z,1225.00
2023-04-18T04:01:15.657Z,1226.00
2023-04-18T04:02:15.711Z,1227.00
2023-04-18T04:03:15.769Z,1232.00
2023-04-18T04:04:16.739Z,1231.00
2023-04-18T04:05:15.931Z,1232.00
2023-04-18T04:06:15.930Z,1234.00
2023-04-18T04:07:16.004Z,1234.00
2023-04-18T04:08:16.103Z,1233.00
2023-04-18T04:09:16.123Z,1231.00
2023-04-18T04:10:16.193Z,1232.00
2023-04-18T04:11:16.260Z,1228.00
2023-04-18T04:12:16.318Z,1225.00
2023-04-18T04:13:16.393Z,1224.00
2023-04-18T04:14:16.513Z,1222.00
2023-04-18T04:15:16.539Z,1222.00
2023-04-18T04:16:16.587Z,1224.00
2023-04-18T04:17:16.651Z,1225.00
2023-04-18T04:18:16.708Z,1224.00
2023-04-18T04:19:16.769Z,1225.00
2023-04-18T04:20:16.840Z,1225.00
2023-04-18T04:21:17.597Z,1222.00
2023-04-18T04:22:16.956Z,1222.00
2023-04-18T04:23:17.083Z,1223.00
2023-04-18T04:24:17.076Z,1223.00
2023-04-18T04:25:17.136Z,1224.00
2023-04-18T04:26:17.471Z,1223.00
2023-04-18T04:27:17.260Z,1226.00
2023-04-18T04:28:17.318Z,1226.00
2023-04-18T04:29:17.374Z,1225.00
2023-04-18T04:30:17.441Z,1225.00
2023-04-18T04:31:17.532Z,1226.00
2023-04-18T04:32:17.565Z,1227.00
2023-04-18T04:33:17.644Z,1226.00
2023-04-18T04:34:17.693Z,1230.00
2023-04-18T04:35:17.758Z,1227.00
2023-04-18T04:36:19.041Z,1226.00
2023-04-18T04:37:17.862Z,1228.00
2023-04-18T04:38:17.926Z,1228.00
2023-04-18T04:39:17.989Z,1228.00
2023-04-18T04:40:18.059Z,1225.00
2023-04-18T04:41:18.133Z,1226.00
2023-04-18T04:42:18.181Z,1226.00
2023-04-18T04:43:18.238Z,1224.00
2023-04-18T04:44:18.362Z,1223.00
2023-04-18T04:45:18.385Z,1225.00
2023-04-18T04:46:18.534Z,1224.00
2023-04-18T04:47:18.498Z,1221.00
2023-04-18T04:48:18.566Z,1224.00
2023-04-18T04:49:18.632Z,1224.00
2023-04-18T04:50:18.715Z,1223.00
2023-04-18T04:51:18.766Z,1219.00
2023-04-18T04:52:18.829Z,1218.00
2023-04-18T04:53:18.889Z,1217.00
2023-04-18T04:54:18.952Z,1217.00
2023-04-18T04:55:19.084Z,1216.00
2023-04-18T04:56:19.082Z,1214.00
2023-04-18T04:57:19.154Z,1213.00
2023-04-18T04:58:19.235Z,1212.00
2023-04-18T04:59:19.284Z,1210.00
2023-04-18T05:00:19.344Z,1207.00
2023-04-18T05:01:19.483Z,1207.00
2023-04-18T05:02:19.537Z,1205.00
2023-04-18T05:03:19.695Z,1202.00
2023-04-18T05:04:20.165Z,1199.00
2023-04-18T05:05:19.657Z,1200.00
2023-04-18T05:06:19.750Z,1200.00
2023-04-18T05:07:19.789Z,1200.00
2023-04-18T05:08:19.850Z,1200.00
2023-04-18T05:09:19.920Z,1200.00
2023-04-18T05:10:19.967Z,1200.00
2023-04-18T05:11:20.049Z,1200.00
2023-04-18T05:12:20.098Z,1201.00
2023-04-18T05:13:20.174Z,1202.00
2023-04-18T05:14:20.226Z,1205.00
2023-04-18T05:15:20.284Z,1207.00
2023-04-18T05:16:20.356Z,1208.00
2023-04-18T05:17:20.394Z,1207.00
2023-04-18T05:18:20.457Z,1205.00
2023-04-18T05:19:20.519Z,1205.00
2023-04-18T05:20:20.577Z,1206.00
2023-04-18T05:21:20.631Z,1204.00
2023-04-18T05:22:20.680Z,1201.00
2023-04-18T05:23:20.766Z,1205.00
2023-04-18T05:24:20.814Z,1213.00
2023-04-18T05:25:20.867Z,1230.00
2023-04-18T05:26:20.944Z,1263.00
2023-04-18T05:27:20.971Z,1291.00
2023-04-18T05:28:21.000Z,1407.00
2023-04-18T05:29:21.033Z,1438.00
2023-04-18T05:30:21.103Z,1437.00
2023-04-18T05:31:22.031Z,1515.00
2023-04-18T05:32:21.171Z,1547.00
2023-04-18T05:33:21.133Z,1552.00
2023-04-18T05:34:21.150Z,1559.00
2023-04-18T05:35:21.188Z,1581.00
2023-04-18T05:36:21.190Z,1627.00
2023-04-18T05:37:21.206Z,1692.00
2023-04-18T05:38:21.220Z,1728.00
2023-04-18T05:39:21.220Z,1757.00
2023-04-18T05:40:21.249Z,1782.00
2023-04-18T05:41:21.248Z,1798.00
2023-04-18T05:42:21.273Z,1821.00
2023-04-18T05:43:21.274Z,1879.00
2023-04-18T05:44:21.567Z,1896.00
2023-04-18T05:45:21.307Z,1912.00
2023-04-18T05:46:21.360Z,1921.00
2023-04-18T05:47:21.370Z,1929.00
2023-04-18T05:48:21.364Z,1948.00
2023-04-18T05:49:21.368Z,1987.00
2023-04-18T05:50:21.499Z,2009.00
2023-04-18T05:51:21.476Z,2020.00
2023-04-18T05:52:21.521Z,2035.00
2023-04-18T05:53:22.498Z,2060.00
2023-04-18T05:54:21.653Z,2032.00
2023-04-18T05:55:21.772Z,2117.00
2023-04-18T05:56:21.778Z,2155.00
2023-04-18T05:57:21.847Z,2182.00
2023-04-18T05:58:21.933Z,2190.00
2023-04-18T05:59:21.964Z,2204.00
2023-04-18T06:00:22.048Z,2223.00
2023-04-18T06:01:22.091Z,2246.00
2023-04-18T06:02:22.273Z,2288.00
2023-04-18T06:03:22.435Z,2334.00
2023-04-18T06:04:22.395Z,2367.00
2023-04-18T06:05:22.817Z,2395.00
2023-04-18T06:06:22.403Z,2441.00
2023-04-18T06:07:22.523Z,2486.00
2023-04-18T06:08:22.524Z,2511.00
2023-04-18T06:09:22.584Z,2558.00
2023-04-18T06:10:22.649Z,2591.00
2023-04-18T06:11:22.728Z,2620.00
2023-04-18T06:12:22.750Z,2642.00
2023-04-18T06:13:22.778Z,2670.00
2023-04-18T06:14:23.509Z,2732.00
2023-04-18T06:15:22.868Z,2741.00
2023-04-18T06:16:22.924Z,2758.00
2023-04-18T06:17:23.010Z,2838.00
2023-04-18T06:18:22.991Z,2851.00
2023-04-18T06:19:23.013Z,2860.00
2023-04-18T06:20:23.049Z,2872.00
2023-04-18T06:21:24.008Z,2877.00
2023-04-18T06:22:23.120Z,2868.00
2023-04-18T06:23:23.162Z,2859.00
2023-04-18T06:24:23.192Z,2850.00
2023-04-18T06:25:23.231Z,2846.00
2023-04-18T06:26:23.275Z,2841.00
2023-04-18T06:27:31.044Z,2834.00
2023-04-18T06:28:24.314Z,2829.00
2023-04-18T06:29:23.316Z,2824.00
2023-04-18T06:30:23.353Z,2817.00
2023-04-18T06:31:23.353Z,2815.00
2023-04-18T06:32:25.498Z,2812.00
2023-04-18T06:33:23.941Z,2811.00
2023-04-18T06:34:23.298Z,2808.00
2023-04-18T06:35:24.138Z,2801.00
2023-04-18T06:36:23.507Z,2797.00
2023-04-18T06:37:23.589Z,2799.00
2023-04-18T06:38:24.017Z,2800.00
2023-04-18T06:39:23.722Z,2798.00
2023-04-18T06:40:23.728Z,2791.00
2023-04-18T06:41:23.789Z,2790.00
2023-04-18T06:42:23.866Z,2787.00
2023-04-18T06:43:23.909Z,2786.00
2023-04-18T06:44:23.973Z,2781.00
2023-04-18T06:45:24.043Z,2777.00
2023-04-18T06:46:24.153Z,2774.00
2023-04-18T06:47:25.162Z,2770.00
2023-04-18T06:48:24.093Z,2768.00
2023-04-18T06:49:26.415Z,2764.00
2023-04-18T06:50:24.330Z,2758.00
2023-04-18T06:51:24.385Z,2755.00
2023-04-18T06:52:24.438Z,2754.00
2023-04-18T06:53:24.512Z,2745.00
2023-04-18T06:54:24.596Z,2741.00
2023-04-18T06:55:24.742Z,2739.00
2023-04-18T06:56:24.705Z,2735.00
2023-04-18T06:57:24.769Z,2735.00
2023-04-18T06:58:24.836Z,2734.00
2023-04-18T06:59:24.911Z,2728.00
2023-04-18T07:00:24.974Z,2723.00
2023-04-18T07:01:25.071Z,2724.00
2023-04-18T07:02:25.179Z,2723.00
2023-04-18T07:03:25.261Z,2718.00
2023-04-18T07:04:25.403Z,2720.00
2023-04-18T07:05:25.269Z,2715.00
2023-04-18T07:06:25.319Z,2712.00
2023-04-18T07:07:25.362Z,2706.00
2023-04-18T07:08:25.443Z,2707.00
2023-04-18T07:09:25.487Z,2701.00
2023-04-18T07:10:26.628Z,2698.00
2023-04-18T07:11:25.603Z,2693.00
2023-04-18T07:12:25.623Z,2687.00
2023-04-18T07:13:25.732Z,2690.00
2023-04-18T07:14:25.730Z,2693.00
2023-04-18T07:15:25.777Z,2687.00
2023-04-18T07:16:25.884Z,2683.00
2023-04-18T07:17:25.959Z,2687.00
2023-04-18T07:18:36.719Z,2679.00
2023-04-18T07:19:27.054Z,2681.00
2023-04-18T07:20:26.060Z,2689.00
2023-04-18T07:21:26.448Z,2769.00
2023-04-18T07:22:25.958Z,2828.00
2023-04-18T07:23:25.963Z,2851.00
2023-04-18T07:24:25.963Z,2872.00
2023-04-18T07:25:25.963Z,2908.00
2023-04-18T07:26:26.602Z,2948.00
2023-04-18T07:27:25.977Z,2985.00
2023-04-18T07:28:26.948Z,3003.00
2023-04-18T07:29:27.455Z,3063.00
2023-04-18T07:30:26.097Z,3092.00
2023-04-18T07:31:26.149Z,3108.00
2023-04-18T07:32:26.235Z,3127.00
2023-04-18T07:33:26.273Z,3152.00
2023-04-18T07:34:26.308Z,3187.00
2023-04-18T07:35:26.250Z,3214.00
2023-04-18T07:36:26.302Z,3252.00
2023-04-18T07:37:26.202Z,3273.00
2023-04-18T07:38:26.208Z,3298.00
2023-04-18T07:39:26.194Z,3341.00
2023-04-18T07:40:26.229Z,3375.00
2023-04-18T07:41:26.245Z,3423.00
2023-04-18T07:42:26.271Z,3448.00
2023-04-18T07:43:26.168Z,3487.00
2023-04-18T07:44:26.161Z,3510.00
2023-04-18T07:45:26.163Z,3533.00
2023-04-18T07:46:26.210Z,3560.00
2023-04-18T07:47:27.518Z,3600.00
2023-04-18T07:48:26.174Z,3628.00
2023-04-18T07:49:26.133Z,3654.00
2023-04-18T07:50:26.141Z,3698.00
2023-04-18T07:51:26.119Z,3738.00
2023-04-18T07:52:26.122Z,3780.00
2023-04-18T07:53:26.108Z,3826.00
2023-04-18T07:54:26.101Z,3861.00
2023-04-18T07:55:26.155Z,3878.00
2023-04-18T07:56:26.097Z,3902.00
2023-04-18T07:57:26.108Z,3931.00
2023-04-18T07:58:26.217Z,3962.00
2023-04-18T07:59:26.091Z,3999.00
2023-04-18T08:00:26.296Z,4031.00
2023-04-18T08:01:26.070Z,4048.00
2023-04-18T08:02:26.246Z,4075.00
2023-04-18T08:03:26.229Z,4109.00
2023-04-18T08:05:26.136Z,4173.00
2023-04-18T08:06:26.973Z,4203.00
2023-04-18T08:07:26.001Z,4240.00
2023-04-18T08:08:26.078Z,4278.00
2023-04-18T08:09:26.001Z,4323.00
2023-04-18T08:10:25.981Z,4392.00
2023-04-18T08:11:25.986Z,4428.00
2023-04-18T08:12:26.032Z,4425.00
2023-04-18T08:13:25.951Z,4409.00
2023-04-18T08:14:25.964Z,4410.00
2023-04-18T08:15:25.901Z,4414.00
2023-04-18T08:16:25.896Z,4411.00
2023-04-18T08:17:25.899Z,4417.00
2023-04-18T08:18:25.857Z,4448.00
2023-04-18T08:19:25.849Z,3820.00
2023-04-18T08:20:25.882Z,2964.00
2023-04-18T08:21:25.827Z,2405.00
2023-04-18T08:22:25.805Z,2564.00
2023-04-18T08:23:25.801Z,2431.00
2023-04-18T08:24:25.796Z,2449.00
2023-04-18T08:25:25.802Z,2408.00
2023-04-18T08:26:25.882Z,2302.00
2023-04-18T08:27:25.769Z,2212.00
2023-04-18T08:28:26.585Z,2221.00
2023-04-18T08:29:25.739Z,2252.00
2023-04-18T08:30:26.691Z,2346.00
2023-04-18T08:31:25.770Z,2371.00
2023-04-18T08:32:25.781Z,2389.00
2023-04-18T08:33:25.694Z,2414.00
2023-04-18T08:34:25.684Z,2506.00
2023-04-18T08:35:25.673Z,2522.00
2023-04-18T08:36:25.660Z,2532.00
2023-04-18T08:37:25.683Z,2553.00
2023-04-18T08:38:25.641Z,2598.00
2023-04-18T08:39:26.057Z,2619.00
2023-04-18T08:40:25.654Z,2643.00
2023-04-18T08:41:25.604Z,2684.00
2023-04-18T08:42:25.596Z,2767.00
2023-04-18T08:43:25.575Z,2784.00
2023-04-18T08:44:25.558Z,2808.00
2023-04-18T08:45:25.555Z,2833.00
2023-04-18T08:46:25.577Z,2858.00
2023-04-18T08:47:25.551Z,2931.00
2023-04-18T08:48:25.499Z,2967.00
2023-04-18T08:49:25.562Z,2993.00
2023-04-18T08:50:25.501Z,3047.00
2023-04-18T08:51:25.457Z,3087.00
2023-04-18T08:52:25.429Z,3113.00
2023-04-18T08:53:25.414Z,3132.00
2023-04-18T08:54:27.140Z,3163.00
2023-04-18T08:55:25.389Z,3188.00
2023-04-18T08:56:25.355Z,3213.00
2023-04-18T08:57:25.339Z,3230.00
2023-04-18T08:58:25.322Z,3267.00
2023-04-18T08:59:25.315Z,3398.00
2023-04-18T09:00:25.423Z,3406.00
2023-04-18T09:01:25.376Z,3413.00
2023-04-18T09:02:25.564Z,3455.00
2023-04-18T09:03:25.361Z,3475.00
2023-04-18T09:04:25.378Z,3500.00
2023-04-18T09:05:25.309Z,3533.00
2023-04-18T09:06:26.081Z,3556.00
2023-04-18T09:07:25.326Z,3577.00
2023-04-18T09:08:25.277Z,3620.00
2023-04-18T09:09:25.276Z,3663.00
2023-04-18T09:10:25.315Z,3684.00
2023-04-18T09:11:25.268Z,3700.00
2023-04-18T09:12:25.269Z,3717.00
2023-04-18T09:13:25.261Z,3737.00
2023-04-18T09:14:25.288Z,3776.00
2023-04-18T09:15:25.315Z,3813.00
2023-04-18T09:16:25.429Z,3850.00
2023-04-18T09:17:25.395Z,3850.00
2023-04-18T09:18:25.647Z,3366.00
2023-04-18T09:19:25.401Z,2188.00
2023-04-18T09:20:25.460Z,1884.00
2023-04-18T09:21:25.540Z,1640.00
2023-04-18T09:22:25.589Z,2066.00
2023-04-18T09:23:25.628Z,2101.00
2023-04-18T09:24:25.654Z,2124.00
2023-04-18T09:25:26.491Z,2131.00
2023-04-18T09:26:25.752Z,2145.00
2023-04-18T09:27:25.804Z,2171.00
2023-04-18T09:28:26.094Z,2201.00
2023-04-18T09:29:25.926Z,2220.00
2023-04-18T09:30:25.983Z,2262.00
2023-04-18T09:31:26.121Z,2293.00
2023-04-18T09:32:26.148Z,2371.00
2023-04-18T09:33:26.162Z,2393.00
2023-04-18T09:34:26.255Z,2398.00
2023-04-18T09:35:26.268Z,2439.00
2023-04-18T09:36:26.348Z,2473.00
2023-04-18T09:37:26.368Z,2499.00
2023-04-18T09:38:26.603Z,2627.00
2023-04-18T09:39:26.470Z,2627.00
2023-04-18T09:40:26.515Z,2644.00
2023-04-18T09:41:26.536Z,2667.00
2023-04-18T09:42:28.795Z,2687.00
2023-04-18T09:43:26.630Z,2716.00
2023-04-18T09:44:26.667Z,2765.00
2023-04-18T09:45:26.710Z,2792.00
2023-04-18T09:46:26.749Z,2826.00
2023-04-18T09:47:26.801Z,2864.00
2023-04-18T09:48:26.790Z,2900.00
2023-04-18T09:49:26.839Z,2952.00
2023-04-18T09:50:26.872Z,2975.00
2023-04-18T09:51:26.912Z,3000.00
2023-04-18T09:52:27.593Z,3023.00
2023-04-18T09:53:26.978Z,3045.00
2023-04-18T09:54:27.000Z,3088.00
2023-04-18T09:55:27.031Z,3117.00
2023-04-18T09:56:27.049Z,3147.00
2023-04-18T09:57:28.093Z,3215.00
2023-04-18T09:58:27.123Z,3240.00
2023-04-18T09:59:27.153Z,3268.00
2023-04-18T10:00:27.184Z,3296.00
2023-04-18T10:01:28.192Z,3327.00
2023-04-18T10:02:27.241Z,3399.00
2023-04-18T10:03:27.219Z,3420.00
2023-04-18T10:04:27.221Z,3444.00
2023-04-18T10:05:27.214Z,3478.00
2023-04-18T10:06:27.099Z,3511.00
2023-04-18T10:07:27.096Z,3538.00
2023-04-18T10:08:27.085Z,3557.00
2023-04-18T10:09:27.067Z,3589.00
2023-04-18T10:10:27.086Z,3624.00
2023-04-18T10:11:27.048Z,3714.00
2023-04-18T10:12:27.045Z,3732.00
2023-04-18T10:13:27.012Z,3737.00
2023-04-18T10:14:28.448Z,3733.00
2023-04-18T10:15:27.166Z,3428.00
2023-04-18T10:16:27.026Z,2761.00
2023-04-18T10:17:28.749Z,2503.00
2023-04-18T10:18:27.040Z,2645.00
2023-04-18T10:19:28.009Z,2654.00
2023-04-18T10:20:26.960Z,2290.00
2023-04-18T10:21:27.594Z,2302.00
2023-04-18T10:22:27.509Z,2194.00
2023-04-18T10:23:28.071Z,2088.00
2023-04-18T10:24:26.918Z,2137.00
2023-04-18T10:25:26.909Z,2159.00
2023-04-18T10:26:26.900Z,2161.00
2023-04-18T10:27:26.883Z,2096.00
2023-04-18T10:28:26.864Z,2044.00
2023-04-18T10:29:26.850Z,2008.00
2023-04-18T10:30:26.849Z,1923.00
2023-04-18T10:31:27.026Z,1920.00
2023-04-18T10:32:26.931Z,1902.00
2023-04-18T10:33:31.129Z,1882.00
2023-04-18T10:34:28.003Z,1864.00
2023-04-18T10:35:26.979Z,1843.00
2023-04-18T10:36:26.885Z,1815.00
2023-04-18T10:37:26.870Z,1801.00
2023-04-18T10:38:26.856Z,1804.00
2023-04-18T10:39:26.892Z,1825.00
2023-04-18T10:40:26.811Z,1883.00
2023-04-18T10:41:26.825Z,1995.00
2023-04-18T10:42:26.770Z,2005.00
2023-04-18T10:43:26.828Z,2021.00
2023-04-18T10:44:26.796Z,2059.00
2023-04-18T10:45:26.821Z,2093.00
2023-04-18T10:46:31.624Z,2159.00
2023-04-18T10:47:27.913Z,2179.00
2023-04-18T10:48:26.814Z,2190.00
2023-04-18T10:49:28.416Z,2212.00
2023-04-18T10:50:26.788Z,2254.00
2023-04-18T10:51:26.775Z,2277.00
2023-04-18T10:52:26.764Z,2294.00
2023-04-18T10:53:26.763Z,2322.00
2023-04-18T10:54:26.766Z,2348.00
2023-04-18T10:55:27.110Z,2388.00
2023-04-18T10:56:27.103Z,2411.00
2023-04-18T10:57:26.695Z,2429.00
2023-04-18T10:58:26.684Z,2456.00
2023-04-18T10:59:26.692Z,2480.00
2023-04-18T11:00:26.681Z,2509.00
2023-04-18T11:01:27.481Z,2549.00
2023-04-18T11:02:26.895Z,2580.00
2023-04-18T11:03:26.925Z,2623.00
2023-04-18T11:04:26.925Z,2641.00
2023-04-18T11:05:26.856Z,2644.00
2023-04-18T11:06:26.856Z,2640.00
2023-04-18T11:07:28.405Z,2641.00
2023-04-18T11:08:26.836Z,2643.00
2023-04-18T11:09:26.828Z,2641.00
2023-04-18T11:10:26.942Z,2639.00
2023-04-18T11:11:26.783Z,2634.00
2023-04-18T11:12:26.760Z,2637.00
2023-04-18T11:13:26.732Z,2640.00
2023-04-18T11:14:26.717Z,2640.00
2023-04-18T11:15:28.015Z,2638.00
2023-04-18T11:16:26.761Z,2636.00
2023-04-18T11:17:27.634Z,2633.00
2023-04-18T11:18:26.784Z,2630.00
2023-04-18T11:19:26.800Z,2630.00
2023-04-18T11:20:26.921Z,2625.00
2023-04-18T11:21:28.074Z,2623.00
2023-04-18T11:22:26.899Z,2621.00
2023-04-18T11:23:26.997Z,2619.00
2023-04-18T11:24:26.964Z,2617.00
2023-04-18T11:25:27.048Z,2617.00
2023-04-18T11:26:27.166Z,2617.00
2023-04-18T11:27:27.069Z,2614.00
2023-04-18T11:28:27.104Z,2612.00
2023-04-18T11:29:27.616Z,2611.00
2023-04-18T11:30:27.198Z,2604.00
2023-04-18T11:31:27.244Z,2603.00
2023-04-18T11:32:27.811Z,2602.00
2023-04-18T11:33:27.311Z,2602.00
2023-04-18T11:34:27.357Z,2599.00
2023-04-18T11:35:27.391Z,2592.00
2023-04-18T11:36:27.436Z,2590.00
2023-04-18T11:37:27.493Z,2589.00
2023-04-18T11:38:27.516Z,2589.00
2023-04-18T11:39:27.576Z,2581.00
2023-04-18T11:40:27.617Z,2581.00
2023-04-18T11:41:27.666Z,2579.00
2023-04-18T11:42:27.731Z,2577.00
2023-04-18T11:43:27.745Z,2577.00
2023-04-18T11:44:27.794Z,2578.00
2023-04-18T11:45:27.833Z,2577.00
2023-04-18T11:46:27.937Z,2580.00
2023-04-18T11:47:27.945Z,2580.00
2023-04-18T11:48:27.971Z,2578.00
2023-04-18T11:49:28.088Z,2580.00
2023-04-18T11:50:28.134Z,2579.00
2023-04-18T11:51:28.104Z,2576.00
2023-04-18T11:52:28.170Z,2572.00
2023-04-18T11:53:28.203Z,2571.00
2023-04-18T11:54:28.325Z,2576.00
2023-04-18T11:55:28.313Z,2579.00
2023-04-18T11:56:28.328Z,2578.00
2023-04-18T11:57:28.371Z,2576.00
2023-04-18T11:58:28.441Z,2577.00
2023-04-18T11:59:28.444Z,2575.00
2023-04-18T12:00:28.492Z,2575.00
2023-04-18T12:01:28.527Z,2576.00
2023-04-18T12:02:28.662Z,2572.00
2023-04-18T12:03:28.710Z,2570.00
2023-04-18T12:04:28.937Z,2567.00
2023-04-18T12:05:28.927Z,2567.00
2023-04-18T12:06:28.760Z,2562.00
2023-04-18T12:07:29.130Z,2562.00